sensor_id;sensor_type;location;lat;lon;timestamp;P1;durP1;ratioP1;P2;durP2;ratioP2
2618;SDS011;1319;52.346;13.096;2022-12-20T00:00:55;24.27;;;12.47;;
2618;SDS011;1319;52.346;13.096;2022-12-20T00:03:20;23.40;;;12.30;;
2618;SDS011;1319;52.346;13.096;2022-12-20T00:05:45;24.03;;;11.60;;
2618;SDS011;1319;52.346;13.096;2022-12-20T00:08:10;23.07;;;11.90;;
2618;SDS011;1319;52.346;13.096;2022-12-20T00:10:41;23.00;;;11.40;;
2618;SDS011;1319;52.346;13.096;2022-12-20T00:13:07;23.50;;;11.90;;
2618;SDS011;1319;52.346;13.096;2022-12-20T00:15:32;27.83;;;12.40;;
2618;SDS011;1319;52.346;13.096;2022-12-20T00:17:58;21.23;;;11.30;;
2618;SDS011;1319;52.346;13.096;2022-12-20T00:20:24;24.77;;;11.53;;
2618;SDS011;1319;52.346;13.096;2022-12-20T00:22:49;23.33;;;11.77;;
2618;SDS011;1319;52.346;13.096;2022-12-20T00:25:14;23.03;;;11.77;;
2618;SDS011;1319;52.346;13.096;2022-12-20T00:27:40;22.07;;;12.23;;
2618;SDS011;1319;52.346;13.096;2022-12-20T00:30:05;22.97;;;12.20;;
2618;SDS011;1319;52.346;13.096;2022-12-20T00:32:31;22.30;;;12.17;;
2618;SDS011;1319;52.346;13.096;2022-12-20T00:34:56;25.37;;;12.00;;
2618;SDS011;1319;52.346;13.096;2022-12-20T00:37:21;22.43;;;12.30;;
2618;SDS011;1319;52.346;13.096;2022-12-20T00:39:46;22.83;;;12.13;;
2618;SDS011;1319;52.346;13.096;2022-12-20T00:42:12;22.40;;;11.57;;
2618;SDS011;1319;52.346;13.096;2022-12-20T00:44:37;22.93;;;11.60;;
2618;SDS011;1319;52.346;13.096;2022-12-20T00:47:02;22.87;;;10.97;;
2618;SDS011;1319;52.346;13.096;2022-12-20T00:49:27;22.67;;;12.63;;
2618;SDS011;1319;52.346;13.096;2022-12-20T00:51:53;25.90;;;12.40;;
2618;SDS011;1319;52.346;13.096;2022-12-20T00:54:18;25.17;;;12.03;;
2618;SDS011;1319;52.346;13.096;2022-12-20T00:56:43;24.60;;;11.93;;
2618;SDS011;1319;52.346;13.096;2022-12-20T00:59:08;22.93;;;11.90;;
2618;SDS011;1319;52.346;13.096;2022-12-20T01:01:34;22.13;;;11.80;;
2618;SDS011;1319;52.346;13.096;2022-12-20T01:04:00;26.43;;;12.17;;
2618;SDS011;1319;52.346;13.096;2022-12-20T01:06:25;21.80;;;11.93;;
2618;SDS011;1319;52.346;13.096;2022-12-20T01:08:52;24.07;;;11.37;;
2618;SDS011;1319;52.346;13.096;2022-12-20T01:11:27;26.67;;;12.57;;
2618;SDS011;1319;52.346;13.096;2022-12-20T01:13:54;25.70;;;12.30;;
2618;SDS011;1319;52.346;13.096;2022-12-20T01:16:21;24.83;;;12.17;;
2618;SDS011;1319;52.346;13.096;2022-12-20T01:18:47;21.77;;;11.77;;
2618;SDS011;1319;52.346;13.096;2022-12-20T01:21:13;22.80;;;11.60;;
2618;SDS011;1319;52.346;13.096;2022-12-20T01:23:39;24.57;;;11.97;;
2618;SDS011;1319;52.346;13.096;2022-12-20T01:26:06;21.10;;;11.33;;
2618;SDS011;1319;52.346;13.096;2022-12-20T01:28:33;24.20;;;12.20;;
2618;SDS011;1319;52.346;13.096;2022-12-20T01:30:59;21.37;;;11.23;;
2618;SDS011;1319;52.346;13.096;2022-12-20T01:33:24;21.53;;;11.73;;
2618;SDS011;1319;52.346;13.096;2022-12-20T01:36:00;26.00;;;12.10;;
2618;SDS011;1319;52.346;13.096;2022-12-20T01:38:25;24.97;;;11.37;;
2618;SDS011;1319;52.346;13.096;2022-12-20T01:40:51;24.03;;;11.87;;
2618;SDS011;1319;52.346;13.096;2022-12-20T01:43:16;24.83;;;12.37;;
2618;SDS011;1319;52.346;13.096;2022-12-20T01:45:43;22.53;;;12.60;;
2618;SDS011;1319;52.346;13.096;2022-12-20T01:48:08;24.20;;;12.10;;
2618;SDS011;1319;52.346;13.096;2022-12-20T01:50:34;24.10;;;12.80;;
2618;SDS011;1319;52.346;13.096;2022-12-20T01:52:59;24.47;;;12.20;;
2618;SDS011;1319;52.346;13.096;2022-12-20T01:55:27;21.10;;;11.27;;
2618;SDS011;1319;52.346;13.096;2022-12-20T01:58:15;23.23;;;11.67;;
2618;SDS011;1319;52.346;13.096;2022-12-20T02:00:39;24.20;;;11.67;;
2618;SDS011;1319;52.346;13.096;2022-12-20T02:03:05;23.23;;;12.13;;
2618;SDS011;1319;52.346;13.096;2022-12-20T02:05:38;26.83;;;12.03;;
2618;SDS011;1319;52.346;13.096;2022-12-20T02:08:03;24.37;;;12.13;;
2618;SDS011;1319;52.346;13.096;2022-12-20T02:11:13;27.43;;;11.70;;
2618;SDS011;1319;52.346;13.096;2022-12-20T02:16:10;21.53;;;12.00;;
2618;SDS011;1319;52.346;13.096;2022-12-20T02:18:47;23.87;;;12.13;;
2618;SDS011;1319;52.346;13.096;2022-12-20T02:34:12;22.33;;;11.87;;
2618;SDS011;1319;52.346;13.096;2022-12-20T02:36:39;22.60;;;11.70;;
2618;SDS011;1319;52.346;13.096;2022-12-20T02:39:04;24.73;;;11.67;;
2618;SDS011;1319;52.346;13.096;2022-12-20T02:41:32;22.83;;;11.27;;
2618;SDS011;1319;52.346;13.096;2022-12-20T02:44:02;21.03;;;11.53;;
2618;SDS011;1319;52.346;13.096;2022-12-20T02:46:47;19.57;;;11.03;;
2618;SDS011;1319;52.346;13.096;2022-12-20T02:49:15;19.63;;;11.27;;
2618;SDS011;1319;52.346;13.096;2022-12-20T02:51:41;21.23;;;11.57;;
2618;SDS011;1319;52.346;13.096;2022-12-20T02:54:08;22.60;;;10.80;;
2618;SDS011;1319;52.346;13.096;2022-12-20T02:56:37;20.03;;;10.37;;
2618;SDS011;1319;52.346;13.096;2022-12-20T02:59:10;21.30;;;10.97;;
2618;SDS011;1319;52.346;13.096;2022-12-20T03:02:09;21.97;;;10.83;;
2618;SDS011;1319;52.346;13.096;2022-12-20T03:04:29;20.70;;;11.40;;
2618;SDS011;1319;52.346;13.096;2022-12-20T03:09:23;21.53;;;11.17;;
2618;SDS011;1319;52.346;13.096;2022-12-20T03:11:48;23.63;;;10.87;;
2618;SDS011;1319;52.346;13.096;2022-12-20T03:14:14;24.03;;;11.27;;
2618;SDS011;1319;52.346;13.096;2022-12-20T03:16:39;20.13;;;11.53;;
2618;SDS011;1319;52.346;13.096;2022-12-20T03:19:04;21.57;;;11.10;;
2618;SDS011;1319;52.346;13.096;2022-12-20T03:21:29;20.30;;;11.00;;
2618;SDS011;1319;52.346;13.096;2022-12-20T03:23:54;22.07;;;11.20;;
2618;SDS011;1319;52.346;13.096;2022-12-20T03:26:20;19.47;;;10.63;;
2618;SDS011;1319;52.346;13.096;2022-12-20T03:28:45;19.50;;;11.10;;
2618;SDS011;1319;52.346;13.096;2022-12-20T03:31:10;20.17;;;10.20;;
2618;SDS011;1319;52.346;13.096;2022-12-20T03:33:36;22.30;;;11.50;;
2618;SDS011;1319;52.346;13.096;2022-12-20T03:36:01;19.77;;;10.73;;
2618;SDS011;1319;52.346;13.096;2022-12-20T03:38:26;21.97;;;11.37;;
2618;SDS011;1319;52.346;13.096;2022-12-20T03:40:51;23.33;;;11.20;;
2618;SDS011;1319;52.346;13.096;2022-12-20T03:43:17;21.47;;;11.50;;
2618;SDS011;1319;52.346;13.096;2022-12-20T03:45:42;21.00;;;10.50;;
2618;SDS011;1319;52.346;13.096;2022-12-20T03:48:07;23.73;;;11.70;;
2618;SDS011;1319;52.346;13.096;2022-12-20T03:50:33;21.80;;;10.43;;
2618;SDS011;1319;52.346;13.096;2022-12-20T03:52:58;22.93;;;11.37;;
2618;SDS011;1319;52.346;13.096;2022-12-20T03:55:23;24.27;;;11.77;;
2618;SDS011;1319;52.346;13.096;2022-12-20T03:57:48;25.63;;;11.87;;
2618;SDS011;1319;52.346;13.096;2022-12-20T04:00:14;20.57;;;11.50;;
2618;SDS011;1319;52.346;13.096;2022-12-20T04:02:40;18.10;;;10.50;;
2618;SDS011;1319;52.346;13.096;2022-12-20T04:05:05;20.27;;;10.67;;
2618;SDS011;1319;52.346;13.096;2022-12-20T04:07:31;20.70;;;11.73;;
2618;SDS011;1319;52.346;13.096;2022-12-20T04:09:56;23.27;;;11.47;;
2618;SDS011;1319;52.346;13.096;2022-12-20T04:12:21;17.90;;;10.53;;
2618;SDS011;1319;52.346;13.096;2022-12-20T04:14:46;22.37;;;12.00;;
2618;SDS011;1319;52.346;13.096;2022-12-20T04:17:12;21.10;;;11.00;;
2618;SDS011;1319;52.346;13.096;2022-12-20T04:19:37;19.90;;;10.90;;
2618;SDS011;1319;52.346;13.096;2022-12-20T04:22:02;21.00;;;10.73;;
2618;SDS011;1319;52.346;13.096;2022-12-20T04:24:27;21.40;;;11.50;;
2618;SDS011;1319;52.346;13.096;2022-12-20T04:26:53;22.80;;;11.60;;
2618;SDS011;1319;52.346;13.096;2022-12-20T04:29:18;19.30;;;9.97;;
2618;SDS011;1319;52.346;13.096;2022-12-20T04:31:43;18.73;;;11.00;;
2618;SDS011;1319;52.346;13.096;2022-12-20T04:34:08;22.07;;;11.50;;
2618;SDS011;1319;52.346;13.096;2022-12-20T04:36:34;18.60;;;10.70;;
2618;SDS011;1319;52.346;13.096;2022-12-20T04:38:59;22.50;;;12.10;;
2618;SDS011;1319;52.346;13.096;2022-12-20T04:41:24;22.33;;;11.83;;
2618;SDS011;1319;52.346;13.096;2022-12-20T04:43:52;20.13;;;11.37;;
2618;SDS011;1319;52.346;13.096;2022-12-20T04:46:18;23.00;;;12.17;;
2618;SDS011;1319;52.346;13.096;2022-12-20T04:48:43;22.27;;;11.17;;
2618;SDS011;1319;52.346;13.096;2022-12-20T04:51:08;20.27;;;11.23;;
2618;SDS011;1319;52.346;13.096;2022-12-20T04:53:34;18.67;;;10.97;;
2618;SDS011;1319;52.346;13.096;2022-12-20T04:56:12;21.47;;;10.83;;
2618;SDS011;1319;52.346;13.096;2022-12-20T04:58:37;20.77;;;10.90;;
2618;SDS011;1319;52.346;13.096;2022-12-20T05:01:03;20.70;;;11.27;;
2618;SDS011;1319;52.346;13.096;2022-12-20T05:03:28;19.83;;;10.87;;
2618;SDS011;1319;52.346;13.096;2022-12-20T05:05:53;22.97;;;11.77;;
2618;SDS011;1319;52.346;13.096;2022-12-20T05:08:18;21.23;;;10.83;;
2618;SDS011;1319;52.346;13.096;2022-12-20T05:10:44;20.17;;;11.03;;
2618;SDS011;1319;52.346;13.096;2022-12-20T05:13:09;19.33;;;10.70;;
2618;SDS011;1319;52.346;13.096;2022-12-20T05:15:35;20.90;;;11.13;;
2618;SDS011;1319;52.346;13.096;2022-12-20T05:18:00;21.07;;;11.17;;
2618;SDS011;1319;52.346;13.096;2022-12-20T05:20:26;18.83;;;10.13;;
2618;SDS011;1319;52.346;13.096;2022-12-20T05:22:51;22.37;;;11.43;;
2618;SDS011;1319;52.346;13.096;2022-12-20T05:25:37;23.37;;;11.20;;
2618;SDS011;1319;52.346;13.096;2022-12-20T05:28:21;21.07;;;11.10;;
2618;SDS011;1319;52.346;13.096;2022-12-20T05:30:46;20.93;;;11.50;;
2618;SDS011;1319;52.346;13.096;2022-12-20T05:33:11;19.77;;;11.00;;
2618;SDS011;1319;52.346;13.096;2022-12-20T05:35:36;21.10;;;10.90;;
2618;SDS011;1319;52.346;13.096;2022-12-20T05:38:02;21.40;;;10.90;;
2618;SDS011;1319;52.346;13.096;2022-12-20T05:40:27;22.40;;;10.73;;
2618;SDS011;1319;52.346;13.096;2022-12-20T05:42:53;20.27;;;11.30;;
2618;SDS011;1319;52.346;13.096;2022-12-20T05:45:19;19.07;;;11.23;;
2618;SDS011;1319;52.346;13.096;2022-12-20T05:47:44;21.73;;;12.00;;
2618;SDS011;1319;52.346;13.096;2022-12-20T05:50:09;19.83;;;10.70;;
2618;SDS011;1319;52.346;13.096;2022-12-20T05:52:35;21.87;;;11.20;;
2618;SDS011;1319;52.346;13.096;2022-12-20T05:55:00;23.23;;;11.97;;
2618;SDS011;1319;52.346;13.096;2022-12-20T05:57:25;22.77;;;11.33;;
2618;SDS011;1319;52.346;13.096;2022-12-20T05:59:50;19.17;;;11.53;;
2618;SDS011;1319;52.346;13.096;2022-12-20T06:02:15;27.00;;;12.00;;
2618;SDS011;1319;52.346;13.096;2022-12-20T06:04:41;21.80;;;11.50;;
2618;SDS011;1319;52.346;13.096;2022-12-20T06:07:06;23.13;;;12.13;;
2618;SDS011;1319;52.346;13.096;2022-12-20T06:09:31;22.10;;;12.17;;
2618;SDS011;1319;52.346;13.096;2022-12-20T06:11:57;23.13;;;12.07;;
2618;SDS011;1319;52.346;13.096;2022-12-20T06:14:22;20.43;;;11.57;;
2618;SDS011;1319;52.346;13.096;2022-12-20T06:16:48;20.77;;;11.83;;
2618;SDS011;1319;52.346;13.096;2022-12-20T06:19:13;21.67;;;10.77;;
2618;SDS011;1319;52.346;13.096;2022-12-20T06:21:38;17.50;;;10.93;;
2618;SDS011;1319;52.346;13.096;2022-12-20T06:24:04;22.10;;;11.50;;
2618;SDS011;1319;52.346;13.096;2022-12-20T06:26:29;22.57;;;11.83;;
2618;SDS011;1319;52.346;13.096;2022-12-20T06:29:00;20.87;;;11.13;;
2618;SDS011;1319;52.346;13.096;2022-12-20T06:31:26;19.47;;;10.80;;
2618;SDS011;1319;52.346;13.096;2022-12-20T06:33:51;20.33;;;10.83;;
2618;SDS011;1319;52.346;13.096;2022-12-20T06:36:16;22.87;;;11.60;;
2618;SDS011;1319;52.346;13.096;2022-12-20T06:38:41;22.50;;;11.03;;
2618;SDS011;1319;52.346;13.096;2022-12-20T06:41:07;19.80;;;10.93;;
2618;SDS011;1319;52.346;13.096;2022-12-20T06:43:32;21.67;;;11.33;;
2618;SDS011;1319;52.346;13.096;2022-12-20T06:45:58;20.73;;;11.70;;
2618;SDS011;1319;52.346;13.096;2022-12-20T06:48:23;20.67;;;11.33;;
2618;SDS011;1319;52.346;13.096;2022-12-20T06:50:48;20.40;;;11.53;;
2618;SDS011;1319;52.346;13.096;2022-12-20T06:53:14;20.70;;;11.63;;
2618;SDS011;1319;52.346;13.096;2022-12-20T06:55:39;20.73;;;10.83;;
2618;SDS011;1319;52.346;13.096;2022-12-20T06:58:04;18.83;;;10.90;;
2618;SDS011;1319;52.346;13.096;2022-12-20T07:00:30;19.53;;;11.03;;
2618;SDS011;1319;52.346;13.096;2022-12-20T07:02:55;19.37;;;11.77;;
2618;SDS011;1319;52.346;13.096;2022-12-20T07:05:20;20.83;;;10.87;;
2618;SDS011;1319;52.346;13.096;2022-12-20T07:07:45;20.80;;;11.03;;
2618;SDS011;1319;52.346;13.096;2022-12-20T07:10:11;20.80;;;11.23;;
2618;SDS011;1319;52.346;13.096;2022-12-20T07:12:36;17.90;;;10.73;;
2618;SDS011;1319;52.346;13.096;2022-12-20T07:15:01;22.67;;;11.93;;
2618;SDS011;1319;52.346;13.096;2022-12-20T07:17:26;17.07;;;10.33;;
2618;SDS011;1319;52.346;13.096;2022-12-20T07:19:52;20.77;;;11.33;;
2618;SDS011;1319;52.346;13.096;2022-12-20T07:22:17;20.30;;;11.47;;
2618;SDS011;1319;52.346;13.096;2022-12-20T07:24:42;20.83;;;11.67;;
2618;SDS011;1319;52.346;13.096;2022-12-20T07:27:09;19.03;;;11.50;;
2618;SDS011;1319;52.346;13.096;2022-12-20T07:29:34;25.23;;;12.30;;
2618;SDS011;1319;52.346;13.096;2022-12-20T07:32:00;22.50;;;12.03;;
2618;SDS011;1319;52.346;13.096;2022-12-20T07:34:25;22.33;;;11.97;;
2618;SDS011;1319;52.346;13.096;2022-12-20T07:36:50;23.60;;;12.73;;
2618;SDS011;1319;52.346;13.096;2022-12-20T07:39:16;23.03;;;12.40;;
2618;SDS011;1319;52.346;13.096;2022-12-20T07:41:41;20.93;;;11.57;;
2618;SDS011;1319;52.346;13.096;2022-12-20T07:44:06;24.87;;;12.73;;
2618;SDS011;1319;52.346;13.096;2022-12-20T07:46:32;23.47;;;12.63;;
2618;SDS011;1319;52.346;13.096;2022-12-20T07:48:57;23.33;;;12.50;;
2618;SDS011;1319;52.346;13.096;2022-12-20T07:51:23;23.87;;;13.00;;
2618;SDS011;1319;52.346;13.096;2022-12-20T07:53:51;28.93;;;12.80;;
2618;SDS011;1319;52.346;13.096;2022-12-20T07:56:18;25.90;;;12.60;;
2618;SDS011;1319;52.346;13.096;2022-12-20T07:58:45;25.53;;;12.33;;
2618;SDS011;1319;52.346;13.096;2022-12-20T08:01:10;23.43;;;12.73;;
2618;SDS011;1319;52.346;13.096;2022-12-20T08:03:37;26.20;;;12.27;;
2618;SDS011;1319;52.346;13.096;2022-12-20T08:06:04;22.90;;;12.37;;
2618;SDS011;1319;52.346;13.096;2022-12-20T08:08:31;25.83;;;13.47;;
2618;SDS011;1319;52.346;13.096;2022-12-20T08:10:56;24.67;;;12.63;;
2618;SDS011;1319;52.346;13.096;2022-12-20T08:13:21;25.07;;;13.57;;
2618;SDS011;1319;52.346;13.096;2022-12-20T08:15:47;25.83;;;13.23;;
2618;SDS011;1319;52.346;13.096;2022-12-20T08:18:13;25.30;;;13.70;;
2618;SDS011;1319;52.346;13.096;2022-12-20T08:20:38;25.83;;;13.20;;
2618;SDS011;1319;52.346;13.096;2022-12-20T08:23:03;23.17;;;13.00;;
2618;SDS011;1319;52.346;13.096;2022-12-20T08:25:29;25.33;;;12.67;;
2618;SDS011;1319;52.346;13.096;2022-12-20T08:27:54;25.87;;;12.53;;
2618;SDS011;1319;52.346;13.096;2022-12-20T08:30:20;26.47;;;13.43;;
2618;SDS011;1319;52.346;13.096;2022-12-20T08:32:45;26.97;;;14.03;;
2618;SDS011;1319;52.346;13.096;2022-12-20T08:35:10;27.30;;;13.07;;
2618;SDS011;1319;52.346;13.096;2022-12-20T08:37:37;28.43;;;12.83;;
2618;SDS011;1319;52.346;13.096;2022-12-20T08:40:02;23.37;;;12.57;;
2618;SDS011;1319;52.346;13.096;2022-12-20T08:42:28;27.70;;;13.57;;
2618;SDS011;1319;52.346;13.096;2022-12-20T08:44:53;24.73;;;13.30;;
2618;SDS011;1319;52.346;13.096;2022-12-20T08:47:18;28.17;;;14.60;;
2618;SDS011;1319;52.346;13.096;2022-12-20T08:49:44;29.40;;;14.23;;
2618;SDS011;1319;52.346;13.096;2022-12-20T08:52:09;32.10;;;14.17;;
2618;SDS011;1319;52.346;13.096;2022-12-20T08:54:34;33.60;;;13.83;;
2618;SDS011;1319;52.346;13.096;2022-12-20T08:57:00;26.47;;;13.30;;
2618;SDS011;1319;52.346;13.096;2022-12-20T08:59:25;26.37;;;13.67;;
2618;SDS011;1319;52.346;13.096;2022-12-20T09:01:50;26.37;;;13.80;;
2618;SDS011;1319;52.346;13.096;2022-12-20T09:04:17;24.00;;;13.37;;
2618;SDS011;1319;52.346;13.096;2022-12-20T09:06:43;24.10;;;12.50;;
2618;SDS011;1319;52.346;13.096;2022-12-20T09:09:08;24.03;;;12.33;;
2618;SDS011;1319;52.346;13.096;2022-12-20T09:11:33;25.27;;;13.33;;
2618;SDS011;1319;52.346;13.096;2022-12-20T09:13:59;27.63;;;12.67;;
2618;SDS011;1319;52.346;13.096;2022-12-20T09:16:26;24.40;;;12.67;;
2618;SDS011;1319;52.346;13.096;2022-12-20T09:18:52;22.07;;;12.40;;
2618;SDS011;1319;52.346;13.096;2022-12-20T09:21:18;20.63;;;12.03;;
2618;SDS011;1319;52.346;13.096;2022-12-20T09:23:44;27.00;;;12.50;;
2618;SDS011;1319;52.346;13.096;2022-12-20T09:26:10;24.77;;;12.67;;
2618;SDS011;1319;52.346;13.096;2022-12-20T09:28:36;24.17;;;12.43;;
2618;SDS011;1319;52.346;13.096;2022-12-20T09:31:02;19.77;;;11.50;;
2618;SDS011;1319;52.346;13.096;2022-12-20T09:33:28;23.77;;;11.97;;
2618;SDS011;1319;52.346;13.096;2022-12-20T09:35:54;20.83;;;11.70;;
2618;SDS011;1319;52.346;13.096;2022-12-20T09:38:20;23.13;;;12.57;;
2618;SDS011;1319;52.346;13.096;2022-12-20T09:40:49;19.07;;;11.73;;
2618;SDS011;1319;52.346;13.096;2022-12-20T09:43:15;20.47;;;11.40;;
2618;SDS011;1319;52.346;13.096;2022-12-20T09:45:41;21.97;;;11.77;;
2618;SDS011;1319;52.346;13.096;2022-12-20T09:48:18;17.70;;;11.40;;
2618;SDS011;1319;52.346;13.096;2022-12-20T09:53:25;19.30;;;11.70;;
2618;SDS011;1319;52.346;13.096;2022-12-20T09:55:53;22.87;;;11.73;;
2618;SDS011;1319;52.346;13.096;2022-12-20T10:00:46;18.50;;;10.97;;
2618;SDS011;1319;52.346;13.096;2022-12-20T10:03:12;18.70;;;11.17;;
2618;SDS011;1319;52.346;13.096;2022-12-20T10:05:55;18.93;;;10.80;;
2618;SDS011;1319;52.346;13.096;2022-12-20T10:10:56;19.13;;;11.70;;
2618;SDS011;1319;52.346;13.096;2022-12-20T10:18:42;21.53;;;11.90;;
2618;SDS011;1319;52.346;13.096;2022-12-20T10:23:55;18.33;;;10.77;;
2618;SDS011;1319;52.346;13.096;2022-12-20T10:26:22;16.83;;;10.23;;
2618;SDS011;1319;52.346;13.096;2022-12-20T10:28:47;20.33;;;11.13;;
2618;SDS011;1319;52.346;13.096;2022-12-20T10:31:13;19.13;;;10.67;;
2618;SDS011;1319;52.346;13.096;2022-12-20T10:33:38;27.13;;;11.63;;
2618;SDS011;1319;52.346;13.096;2022-12-20T10:36:17;19.63;;;11.70;;
2618;SDS011;1319;52.346;13.096;2022-12-20T10:38:43;18.33;;;11.27;;
2618;SDS011;1319;52.346;13.096;2022-12-20T10:41:10;18.13;;;11.20;;
2618;SDS011;1319;52.346;13.096;2022-12-20T10:43:41;16.70;;;10.53;;
2618;SDS011;1319;52.346;13.096;2022-12-20T10:46:07;17.13;;;11.03;;
2618;SDS011;1319;52.346;13.096;2022-12-20T10:51:02;16.57;;;9.93;;
2618;SDS011;1319;52.346;13.096;2022-12-20T10:53:28;18.43;;;10.43;;
2618;SDS011;1319;52.346;13.096;2022-12-20T10:56:06;17.77;;;9.30;;
2618;SDS011;1319;52.346;13.096;2022-12-20T10:58:34;20.03;;;10.33;;
2618;SDS011;1319;52.346;13.096;2022-12-20T11:01:16;17.13;;;10.00;;
2618;SDS011;1319;52.346;13.096;2022-12-20T11:06:14;16.83;;;9.90;;
2618;SDS011;1319;52.346;13.096;2022-12-20T11:08:40;13.87;;;8.83;;
2618;SDS011;1319;52.346;13.096;2022-12-20T11:11:09;17.33;;;8.90;;
2618;SDS011;1319;52.346;13.096;2022-12-20T11:13:35;15.43;;;9.30;;
2618;SDS011;1319;52.346;13.096;2022-12-20T11:16:01;15.47;;;9.03;;
2618;SDS011;1319;52.346;13.096;2022-12-20T11:18:36;14.60;;;9.10;;
2618;SDS011;1319;52.346;13.096;2022-12-20T11:21:22;12.03;;;8.70;;
2618;SDS011;1319;52.346;13.096;2022-12-20T11:31:20;12.93;;;8.50;;
2618;SDS011;1319;52.346;13.096;2022-12-20T11:36:23;16.43;;;9.33;;
2618;SDS011;1319;52.346;13.096;2022-12-20T11:41:37;13.80;;;8.30;;
2618;SDS011;1319;52.346;13.096;2022-12-20T11:44:14;14.83;;;8.80;;
2618;SDS011;1319;52.346;13.096;2022-12-20T11:46:47;18.40;;;8.80;;
2618;SDS011;1319;52.346;13.096;2022-12-20T11:51:44;13.20;;;8.37;;
2618;SDS011;1319;52.346;13.096;2022-12-20T11:56:43;13.87;;;8.53;;
2618;SDS011;1319;52.346;13.096;2022-12-20T11:59:16;13.33;;;8.53;;
2618;SDS011;1319;52.346;13.096;2022-12-20T12:01:45;13.40;;;8.33;;
2618;SDS011;1319;52.346;13.096;2022-12-20T12:04:20;14.67;;;8.23;;
2618;SDS011;1319;52.346;13.096;2022-12-20T12:06:47;14.07;;;8.67;;
2618;SDS011;1319;52.346;13.096;2022-12-20T12:09:24;11.43;;;7.83;;
2618;SDS011;1319;52.346;13.096;2022-12-20T12:11:56;13.97;;;8.07;;
2618;SDS011;1319;52.346;13.096;2022-12-20T12:16:59;13.77;;;8.40;;
2618;SDS011;1319;52.346;13.096;2022-12-20T12:19:28;13.37;;;8.50;;
2618;SDS011;1319;52.346;13.096;2022-12-20T12:22:04;14.50;;;8.43;;
2618;SDS011;1319;52.346;13.096;2022-12-20T12:24:34;11.07;;;7.77;;
2618;SDS011;1319;52.346;13.096;2022-12-20T12:26:59;15.63;;;8.57;;
2618;SDS011;1319;52.346;13.096;2022-12-20T12:29:26;16.50;;;8.47;;
2618;SDS011;1319;52.346;13.096;2022-12-20T12:31:54;13.33;;;9.07;;
2618;SDS011;1319;52.346;13.096;2022-12-20T12:42:11;14.17;;;8.67;;
2618;SDS011;1319;52.346;13.096;2022-12-20T12:47:06;16.33;;;9.93;;
2618;SDS011;1319;52.346;13.096;2022-12-20T12:49:35;17.33;;;9.90;;
2618;SDS011;1319;52.346;13.096;2022-12-20T12:52:02;17.07;;;10.10;;
2618;SDS011;1319;52.346;13.096;2022-12-20T12:54:34;17.17;;;9.67;;
2618;SDS011;1319;52.346;13.096;2022-12-20T12:57:09;17.47;;;10.30;;
2618;SDS011;1319;52.346;13.096;2022-12-20T13:04:30;16.80;;;9.40;;
2618;SDS011;1319;52.346;13.096;2022-12-20T13:09:56;18.67;;;10.57;;
2618;SDS011;1319;52.346;13.096;2022-12-20T13:20:18;20.10;;;10.37;;
2618;SDS011;1319;52.346;13.096;2022-12-20T13:25:29;20.83;;;10.30;;
2618;SDS011;1319;52.346;13.096;2022-12-20T13:28:19;15.73;;;10.20;;
2618;SDS011;1319;52.346;13.096;2022-12-20T13:30:46;15.07;;;9.73;;
2618;SDS011;1319;52.346;13.096;2022-12-20T13:33:16;17.63;;;10.53;;
2618;SDS011;1319;52.346;13.096;2022-12-20T13:35:45;19.03;;;10.80;;
2618;SDS011;1319;52.346;13.096;2022-12-20T13:40:47;19.30;;;10.13;;
2618;SDS011;1319;52.346;13.096;2022-12-20T13:45:45;19.00;;;10.03;;
2618;SDS011;1319;52.346;13.096;2022-12-20T13:48:11;16.73;;;9.53;;
2618;SDS011;1319;52.346;13.096;2022-12-20T13:50:39;17.53;;;9.67;;
2618;SDS011;1319;52.346;13.096;2022-12-20T13:53:05;17.10;;;9.83;;
2618;SDS011;1319;52.346;13.096;2022-12-20T13:55:37;17.27;;;8.87;;
2618;SDS011;1319;52.346;13.096;2022-12-20T13:58:14;17.67;;;9.40;;
2618;SDS011;1319;52.346;13.096;2022-12-20T14:00:40;16.37;;;9.37;;
2618;SDS011;1319;52.346;13.096;2022-12-20T14:03:08;18.13;;;9.43;;
2618;SDS011;1319;52.346;13.096;2022-12-20T14:05:36;14.53;;;9.47;;
2618;SDS011;1319;52.346;13.096;2022-12-20T14:08:06;15.33;;;9.27;;
2618;SDS011;1319;52.346;13.096;2022-12-20T14:10:34;15.83;;;9.40;;
2618;SDS011;1319;52.346;13.096;2022-12-20T14:12:59;15.40;;;9.63;;
2618;SDS011;1319;52.346;13.096;2022-12-20T14:15:33;17.77;;;10.07;;
2618;SDS011;1319;52.346;13.096;2022-12-20T14:18:31;19.83;;;9.87;;
2618;SDS011;1319;52.346;13.096;2022-12-20T14:20:50;18.33;;;10.10;;
2618;SDS011;1319;52.346;13.096;2022-12-20T14:23:18;16.67;;;9.63;;
2618;SDS011;1319;52.346;13.096;2022-12-20T14:25:49;18.07;;;10.07;;
2618;SDS011;1319;52.346;13.096;2022-12-20T14:28:34;17.47;;;10.37;;
2618;SDS011;1319;52.346;13.096;2022-12-20T14:31:00;21.27;;;10.93;;
2618;SDS011;1319;52.346;13.096;2022-12-20T14:36:06;16.60;;;9.70;;
2618;SDS011;1319;52.346;13.096;2022-12-20T14:38:31;16.43;;;10.57;;
2618;SDS011;1319;52.346;13.096;2022-12-20T14:40:57;20.57;;;10.53;;
2618;SDS011;1319;52.346;13.096;2022-12-20T14:43:25;22.13;;;11.00;;
2618;SDS011;1319;52.346;13.096;2022-12-20T14:46:05;18.37;;;10.83;;
2618;SDS011;1319;52.346;13.096;2022-12-20T14:48:30;21.23;;;11.47;;
2618;SDS011;1319;52.346;13.096;2022-12-20T14:50:56;22.97;;;11.70;;
2618;SDS011;1319;52.346;13.096;2022-12-20T14:53:23;21.47;;;12.20;;
2618;SDS011;1319;52.346;13.096;2022-12-20T14:55:51;21.87;;;11.93;;
2618;SDS011;1319;52.346;13.096;2022-12-20T14:58:29;21.73;;;11.73;;
2618;SDS011;1319;52.346;13.096;2022-12-20T15:01:00;22.60;;;11.43;;
2618;SDS011;1319;52.346;13.096;2022-12-20T15:03:25;21.20;;;11.53;;
2618;SDS011;1319;52.346;13.096;2022-12-20T15:05:52;20.50;;;11.43;;
2618;SDS011;1319;52.346;13.096;2022-12-20T15:13:12;22.43;;;12.07;;
2618;SDS011;1319;52.346;13.096;2022-12-20T15:15:38;24.23;;;12.30;;
2618;SDS011;1319;52.346;13.096;2022-12-20T15:18:08;24.17;;;12.90;;
2618;SDS011;1319;52.346;13.096;2022-12-20T15:20:34;21.53;;;12.03;;
2618;SDS011;1319;52.346;13.096;2022-12-20T15:22:59;23.03;;;12.93;;
2618;SDS011;1319;52.346;13.096;2022-12-20T15:25:25;24.10;;;12.97;;
2618;SDS011;1319;52.346;13.096;2022-12-20T15:27:51;24.30;;;12.40;;
2618;SDS011;1319;52.346;13.096;2022-12-20T15:30:16;22.33;;;12.33;;
2618;SDS011;1319;52.346;13.096;2022-12-20T15:32:42;23.03;;;12.53;;
2618;SDS011;1319;52.346;13.096;2022-12-20T15:35:13;26.50;;;12.80;;
2618;SDS011;1319;52.346;13.096;2022-12-20T15:37:39;26.33;;;14.37;;
2618;SDS011;1319;52.346;13.096;2022-12-20T15:40:04;29.07;;;13.53;;
2618;SDS011;1319;52.346;13.096;2022-12-20T15:42:30;28.13;;;13.20;;
2618;SDS011;1319;52.346;13.096;2022-12-20T15:44:55;27.47;;;14.33;;
2618;SDS011;1319;52.346;13.096;2022-12-20T15:47:21;27.17;;;14.00;;
2618;SDS011;1319;52.346;13.096;2022-12-20T15:49:46;27.80;;;14.63;;
2618;SDS011;1319;52.346;13.096;2022-12-20T15:52:17;30.60;;;14.17;;
2618;SDS011;1319;52.346;13.096;2022-12-20T15:54:43;24.63;;;13.33;;
2618;SDS011;1319;52.346;13.096;2022-12-20T15:57:08;27.50;;;13.80;;
2618;SDS011;1319;52.346;13.096;2022-12-20T15:59:35;26.43;;;14.40;;
2618;SDS011;1319;52.346;13.096;2022-12-20T16:02:00;27.13;;;13.83;;
2618;SDS011;1319;52.346;13.096;2022-12-20T16:04:26;28.30;;;14.10;;
2618;SDS011;1319;52.346;13.096;2022-12-20T16:06:52;26.40;;;14.17;;
2618;SDS011;1319;52.346;13.096;2022-12-20T16:09:17;29.70;;;14.30;;
2618;SDS011;1319;52.346;13.096;2022-12-20T16:11:43;29.73;;;14.83;;
2618;SDS011;1319;52.346;13.096;2022-12-20T16:14:12;30.03;;;15.50;;
2618;SDS011;1319;52.346;13.096;2022-12-20T16:16:38;29.90;;;15.53;;